Flight Track Log - Related Links

Times and Time Zones

All times are in EDT time to prevent confusion due to time zone crossing. See the N49WC flight status page for this flight to view local times or setup timezone preferences in your user account.


Time Position Orientation Groundspeed Altitude Reporting Facility
EDT Latitude Longitude Course Direction KTS MPH feet Rate Location/Type
Thu 01:00:02 PM 33.6500 -117.8833 203° Southwest 152 175 1,300  Level Southern California TRACON
Thu 01:00:56 PM 33.6167 -117.9000 164° South 143 165 3,900 2,139 Climbing Southern California TRACON
Thu 01:01:57 PM 33.5667 -117.8833 170° South 184 212 5,400 1,805 Climbing Southern California TRACON
Thu 01:03:09 PM 33.5053 -117.8700 136° Southeast 210 242 7,900 2,045 Climbing Los Angeles Center
Thu 01:04:09 PM 33.4642 -117.8217 129° Southeast 203 234 9,900 1,650 Climbing Los Angeles Center
Thu 01:05:09 PM 33.4317 -117.7739 130° Southeast 203 234 11,200 1,550 Climbing Los Angeles Center
Thu 01:06:09 PM 33.3925 -117.7183 129° Southeast 208 239 13,000 1,750 Climbing Los Angeles Center
Thu 01:07:09 PM 33.3517 -117.6581 145° Southeast 221 254 14,700 1,600 Climbing Los Angeles Center
Thu 01:08:09 PM 33.3000 -117.6147 142° Southeast 227 261 16,200 1,400 Climbing Los Angeles Center
Thu 01:09:09 PM 33.2506 -117.5692 144° Southeast 227 261 17,500 1,150 Climbing Los Angeles Center
Thu 01:10:09 PM 33.1947 -117.5211 143° Southeast 232 267 18,500 1,109 Climbing Los Angeles Center
Thu 01:11:08 PM 33.1347 -117.4681 143° Southeast 245 282 19,700 1,150 Climbing Los Angeles Center
Thu 01:12:09 PM 33.0789 -117.4175 143° Southeast 245 282 20,800 1,091 Climbing Los Angeles Center
Thu 01:13:09 PM 33.0253 -117.3697 145° Southeast 245 282 21,900 1,100 Climbing Los Angeles Center
Thu 01:14:09 PM 32.9714 -117.3244 143° Southeast 239 275 23,000 950 Climbing Los Angeles Center
Thu 01:15:09 PM 32.9319 -117.2892 144° Southeast 239 275 23,800 1,000 Climbing Los Angeles Center
Thu 01:16:09 PM 32.8719 -117.2364 144° Southeast 234 269 25,000 950 Climbing Los Angeles Center
Thu 01:17:09 PM 32.8264 -117.1964 149° Southeast 234 269 25,700 800 Climbing Los Angeles Center
Thu 01:18:09 PM 32.7706 -117.1561 144° Southeast 239 275 26,600 900 Climbing Los Angeles Center
Thu 01:19:09 PM 32.7103 -117.1036 144° Southeast 239 275 27,500 750 Climbing Los Angeles Center
Thu 01:20:09 PM 32.6586 -117.0586 143° Southeast 239 275 28,100 650 Climbing Los Angeles Center
Thu 01:21:09 PM 32.6047 -117.0111 145° Southeast 239 275 28,800 650 Climbing Los Angeles Center
Thu 01:22:09 PM 32.5508 -116.9664 141° Southeast 239 275 29,400 600 Climbing Los Angeles Center
Thu 01:23:09 PM 32.4989 -116.9164 142° Southeast 239 275 30,000 600 Climbing Los Angeles Center
Thu 01:24:09 PM 32.4450 -116.8669 127° Southeast 245 282 30,600 600 Climbing Los Angeles Center
Thu 01:31:15 PM 32.4432 -116.8642 142° Southeast  Level FlightAware Approximate
Thu 01:32:15 PM 32.3819 -116.8074 142° Southeast  Level FlightAware Approximate
Thu 01:33:15 PM 32.3206 -116.7506 142° Southeast  Level FlightAware Approximate
Thu 01:34:15 PM 32.2592 -116.6940 142° Southeast  Level FlightAware Approximate
Thu 01:35:15 PM 32.1978 -116.6374 142° Southeast  Level FlightAware Approximate
Thu 01:36:15 PM 32.1364 -116.5809 142° Southeast  Level FlightAware Approximate
Thu 01:37:15 PM 32.0750 -116.5245 142° Southeast  Level FlightAware Approximate
Thu 01:38:15 PM 32.0135 -116.4681 139° Southeast  Level FlightAware Approximate
Thu 01:39:15 PM 31.9547 -116.4086 142° Southeast  Level FlightAware Approximate
Thu 01:40:15 PM 31.8931 -116.3524 142° Southeast  Level FlightAware Approximate
Thu 01:41:15 PM 31.8316 -116.2962 142° Southeast  Level FlightAware Approximate
Thu 01:42:15 PM 31.7701 -116.2402 142° Southeast  Level FlightAware Approximate
Thu 01:43:15 PM 31.7085 -116.1842 142° Southeast  Level FlightAware Approximate
Thu 01:44:15 PM 31.6469 -116.1283 142° Southeast  Level FlightAware Approximate
Thu 01:45:15 PM 31.5852 -116.0724 142° Southeast  Level FlightAware Approximate
Thu 01:46:15 PM 31.5236 -116.0167 142° Southeast  Level FlightAware Approximate
Thu 01:47:15 PM 31.4619 -115.9610 142° Southeast  Level FlightAware Approximate
Thu 01:48:15 PM 31.4002 -115.9054 142° Southeast  Level FlightAware Approximate
Thu 01:49:15 PM 31.3384 -115.8499 142° Southeast  Level FlightAware Approximate
Thu 01:50:15 PM 31.2767 -115.7944 143° Southeast  Level FlightAware Approximate
Thu 01:51:15 PM 31.2149 -115.7390 143° Southeast  Level FlightAware Approximate
Thu 01:52:15 PM 31.1531 -115.6837 143° Southeast  Level FlightAware Approximate
Thu 01:53:15 PM 31.0913 -115.6284 143° Southeast  Level FlightAware Approximate
Thu 01:54:15 PM 31.0294 -115.5732 143° Southeast  Level FlightAware Approximate
Thu 01:55:15 PM 30.9676 -115.5181 143° Southeast  Level FlightAware Approximate
Thu 01:56:15 PM 30.9057 -115.4631 143° Southeast  Level FlightAware Approximate
Thu 01:57:15 PM 30.8438 -115.4081 143° Southeast  Level FlightAware Approximate
Thu 01:58:15 PM 30.7818 -115.3533 143° Southeast  Level FlightAware Approximate
Thu 01:59:15 PM 30.7199 -115.2984 143° Southeast  Level FlightAware Approximate
Thu 02:00:15 PM 30.6579 -115.2437 143° Southeast  Level FlightAware Approximate
Thu 02:01:15 PM 30.5959 -115.1890 143° Southeast  Level FlightAware Approximate
Thu 02:02:15 PM 30.5338 -115.1344 143° Southeast  Level FlightAware Approximate
Thu 02:03:15 PM 30.4718 -115.0798 143° Southeast  Level FlightAware Approximate
Thu 02:04:15 PM 30.4097 -115.0254 143° Southeast  Level FlightAware Approximate
Thu 02:05:15 PM 30.3476 -114.9710 143° Southeast  Level FlightAware Approximate
Thu 02:06:15 PM 30.2855 -114.9166 143° Southeast  Level FlightAware Approximate
Thu 02:07:15 PM 30.2233 -114.8624 143° Southeast  Level FlightAware Approximate
Thu 02:08:15 PM 30.1612 -114.8082 143° Southeast  Level FlightAware Approximate
Thu 02:09:15 PM 30.0990 -114.7541 143° Southeast  Level FlightAware Approximate
Thu 02:10:15 PM 30.0368 -114.7000 145° Southeast  Level FlightAware Approximate
Thu 02:11:15 PM 29.9737 -114.6487 143° Southeast  Level FlightAware Approximate
Thu 02:12:15 PM 29.9114 -114.5947 143° Southeast  Level FlightAware Approximate
Thu 02:13:15 PM 29.8492 -114.5408 143° Southeast  Level FlightAware Approximate
Thu 02:14:15 PM 29.7869 -114.4869 143° Southeast  Level FlightAware Approximate
Thu 02:15:15 PM 29.7246 -114.4332 144° Southeast  Level FlightAware Approximate
Thu 02:16:15 PM 29.6613 -114.3810 146° Southeast  Level FlightAware Approximate
Thu 02:17:15 PM 29.5970 -114.3306 146° Southeast  Level FlightAware Approximate
Thu 02:18:15 PM 29.5326 -114.2803 146° Southeast  Level FlightAware Approximate
Thu 02:19:15 PM 29.4682 -114.2300 146° Southeast  Level FlightAware Approximate
Thu 02:20:15 PM 29.4038 -114.1798 146° Southeast  Level FlightAware Approximate
Thu 02:21:15 PM 29.3394 -114.1297 146° Southeast  Level FlightAware Approximate
Thu 02:22:15 PM 29.2750 -114.0796 146° Southeast  Level FlightAware Approximate
Thu 02:23:15 PM 29.2105 -114.0296 146° Southeast  Level FlightAware Approximate
Thu 02:24:15 PM 29.1460 -113.9797 146° Southeast  Level FlightAware Approximate
Thu 02:25:15 PM 29.0815 -113.9298 146° Southeast  Level FlightAware Approximate
Thu 02:26:15 PM 29.0170 -113.8800 146° Southeast  Level FlightAware Approximate
Thu 02:27:15 PM 28.9525 -113.8302 146° Southeast  Level FlightAware Approximate
Thu 02:28:15 PM 28.8879 -113.7805 146° Southeast  Level FlightAware Approximate
Thu 02:29:15 PM 28.8234 -113.7309 146° Southeast  Level FlightAware Approximate
Thu 02:30:15 PM 28.7588 -113.6813 146° Southeast  Level FlightAware Approximate
Thu 02:31:15 PM 28.6942 -113.6318 146° Southeast  Level FlightAware Approximate
Thu 02:32:15 PM 28.6295 -113.5823 146° Southeast  Level FlightAware Approximate
Thu 02:33:15 PM 28.5649 -113.5329 146° Southeast  Level FlightAware Approximate
Thu 02:34:15 PM 28.5002 -113.4836 146° Southeast  Level FlightAware Approximate
Thu 02:35:15 PM 28.4356 -113.4343 146° Southeast  Level FlightAware Approximate
Thu 02:36:15 PM 28.3708 -113.3851 146° Southeast  Level FlightAware Approximate
Thu 02:37:15 PM 28.3061 -113.3360 146° Southeast  Level FlightAware Approximate
Thu 02:38:15 PM 28.2414 -113.2869 146° Southeast  Level FlightAware Approximate
Thu 02:39:15 PM 28.1767 -113.2379 146° Southeast  Level FlightAware Approximate
Thu 02:40:15 PM 28.1119 -113.1889 146° Southeast  Level FlightAware Approximate
Thu 02:41:15 PM 28.0471 -113.1400 146° Southeast  Level FlightAware Approximate
Thu 02:42:15 PM 27.9823 -113.0911 146° Southeast  Level FlightAware Approximate
Thu 02:43:15 PM 27.9175 -113.0423 146° Southeast  Level FlightAware Approximate
Thu 02:44:15 PM 27.8526 -112.9936 146° Southeast  Level FlightAware Approximate
Thu 02:45:15 PM 27.7878 -112.9449 146° Southeast  Level FlightAware Approximate
Thu 02:46:15 PM 27.7229 -112.8963 146° Southeast  Level FlightAware Approximate
Thu 02:47:15 PM 27.6580 -112.8477 146° Southeast  Level FlightAware Approximate
Thu 02:48:15 PM 27.5931 -112.7992 146° Southeast  Level FlightAware Approximate
Thu 02:49:15 PM 27.5282 -112.7508 147° Southeast  Level FlightAware Approximate
Thu 02:50:15 PM 27.4633 -112.7024 147° Southeast  Level FlightAware Approximate
Thu 02:51:15 PM 27.3983 -112.6541 147° Southeast  Level FlightAware Approximate
Thu 02:52:15 PM 27.3334 -112.6058 147° Southeast  Level FlightAware Approximate
Thu 02:53:15 PM 27.2684 -112.5576 147° Southeast  Level FlightAware Approximate
Thu 02:54:15 PM 27.2034 -112.5094 147° Southeast  Level FlightAware Approximate
Thu 02:55:15 PM 27.1383 -112.4613 147° Southeast  Level FlightAware Approximate
Thu 02:56:15 PM 27.0733 -112.4132 147° Southeast  Level FlightAware Approximate
Thu 02:57:15 PM 27.0083 -112.3652 147° Southeast  Level FlightAware Approximate
Thu 02:58:15 PM 26.9427 -112.3182 147° Southeast  Level FlightAware Approximate
Thu 02:59:15 PM 26.8771 -112.2712 147° Southeast  Level FlightAware Approximate
Thu 03:00:15 PM 26.8114 -112.2243 147° Southeast  Level FlightAware Approximate
Thu 03:01:15 PM 26.7458 -112.1774 147° Southeast  Level FlightAware Approximate
Thu 03:02:15 PM 26.6801 -112.1306 148° Southeast  Level FlightAware Approximate
Thu 03:03:15 PM 26.6145 -112.0839 148° Southeast  Level FlightAware Approximate
Thu 03:04:15 PM 26.5488 -112.0371 148° Southeast  Level FlightAware Approximate
Thu 03:05:15 PM 26.4831 -111.9905 148° Southeast  Level FlightAware Approximate
Thu 03:06:15 PM 26.4174 -111.9439 148° Southeast  Level FlightAware Approximate
Thu 03:07:15 PM 26.3516 -111.8973 148° Southeast  Level FlightAware Approximate
Thu 03:08:15 PM 26.2859 -111.8508 148° Southeast  Level FlightAware Approximate
Thu 03:09:15 PM 26.2201 -111.8044 148° Southeast  Level FlightAware Approximate
Thu 03:10:15 PM 26.1544 -111.7580 148° Southeast  Level FlightAware Approximate
Thu 03:11:15 PM 26.0886 -111.7117 148° Southeast  Level FlightAware Approximate
Thu 03:12:15 PM 26.0228 -111.6654 148° Southeast  Level FlightAware Approximate
Thu 03:13:15 PM 25.9569 -111.6191 148° Southeast  Level FlightAware Approximate
Thu 03:14:15 PM 25.8911 -111.5730 148° Southeast  Level FlightAware Approximate
Thu 03:15:15 PM 25.8253 -111.5268 148° Southeast  Level FlightAware Approximate
Thu 03:16:15 PM 25.7594 -111.4808 148° Southeast  Level FlightAware Approximate
Thu 03:17:15 PM 25.6935 -111.4347 148° Southeast  Level FlightAware Approximate
Thu 03:18:15 PM 25.6276 -111.3887 148° Southeast  Level FlightAware Approximate
Thu 03:19:15 PM 25.5617 -111.3428 148° Southeast  Level FlightAware Approximate
Thu 03:20:15 PM 25.4958 -111.2969 148° Southeast  Level FlightAware Approximate
Thu 03:21:15 PM 25.4299 -111.2511 148° Southeast  Level FlightAware Approximate
Thu 03:22:15 PM 25.3639 -111.2053 148° Southeast  Level FlightAware Approximate
Thu 03:23:15 PM 25.2980 -111.1596 148° Southeast  Level FlightAware Approximate
Thu 03:24:15 PM 25.2320 -111.1139 148° Southeast  Level FlightAware Approximate
Thu 03:25:15 PM 25.1660 -111.0683 148° Southeast  Level FlightAware Approximate
Thu 03:26:15 PM 25.1000 -111.0227 148° Southeast  Level FlightAware Approximate
Thu 03:27:15 PM 25.0340 -110.9772 148° Southeast  Level FlightAware Approximate
Thu 03:28:15 PM 24.9679 -110.9317 148° Southeast  Level FlightAware Approximate
Thu 03:29:15 PM 24.9019 -110.8863 148° Southeast  Level FlightAware Approximate
Thu 03:30:15 PM 24.8358 -110.8409 148° Southeast  Level FlightAware Approximate
Thu 03:31:15 PM 24.7698 -110.7955 148° Southeast  Level FlightAware Approximate
Thu 03:32:15 PM 24.7037 -110.7503 148° Southeast  Level FlightAware Approximate
Thu 03:33:15 PM 24.6376 -110.7050 148° Southeast  Level FlightAware Approximate
Thu 03:34:15 PM 24.5714 -110.6598 148° Southeast  Level FlightAware Approximate
Thu 03:35:15 PM 24.5053 -110.6147 148° Southeast  Level FlightAware Approximate
Thu 03:36:15 PM 24.4392 -110.5696 117° Southeast  Level FlightAware Approximate
Thu 03:37:15 PM 24.4072 -110.5021 154° Southeast  Level FlightAware Approximate
Thu 03:38:15 PM 24.3375 -110.4641 153° Southeast  Level FlightAware Approximate
Thu 03:39:15 PM 24.2680 -110.4257 154° Southeast  Level FlightAware Approximate
Thu 03:40:15 PM 24.1979 -110.3887 152° Southeast  Level FlightAware Approximate
Thu 03:41:15 PM 24.1294 -110.3481 193° South  Level FlightAware Approximate
Thu 03:42:15 PM 24.0536 -110.3673 50° Northeast  Level Estimated
Thu 03:43:15 PM 24.0667 -110.3500 298° West  Level FlightAware Approximate
Thu 03:44:15 PM 24.1031 -110.4254 118° Southeast  Level Estimated
Thu 03:45:15 PM 24.0667 -110.3500 298° West  Level FlightAware Approximate
Thu 03:46:15 PM 24.1031 -110.4254 298° West  Level Estimated

Login

Don't have an account? Register now (free) for customized features, flight alerts, and more!